Time;durP1;ratioP1;P1;durP2;ratioP2;P2;SDS_P1;SDS_P2;PMS_P1;PMS_P2;Temp;Humidity;BMP_temperature;BMP_pressure;BME280_temperature;BME280_humidity;BME280_pressure;Samples;Min_cycle;Max_cycle;Signal;HPM_P1;HPM_P2
2024/01/06 00:00:04;;;;;;;;;;;25.30;99.90;;;;;;5101640;28;19918;-66
2024/01/06 00:02:31;;;;;;;;;;;25.30;99.90;;;;;;5112350;27;19959;-67
2024/01/06 00:04:58;;;;;;;;;;;25.30;99.90;;;;;;5097912;28;19938;-66
2024/01/06 00:07:24;;;;;;;;;;;25.20;99.90;;;;;;5094538;28;19967;-66
2024/01/06 00:09:52;;;;;;;;;;;25.20;99.90;;;;;;5099385;28;19999;-68
2024/01/06 00:12:19;;;;;;;;;;;25.20;99.90;;;;;;5094532;27;19912;-67
2024/01/06 00:14:45;;;;;;;;;;;25.40;99.90;;;;;;5099322;28;20048;-66
2024/01/06 00:17:12;;;;;;;;;;;25.40;99.90;;;;;;5107510;27;19912;-68
2024/01/06 00:19:39;;;;;;;;;;;25.40;99.90;;;;;;5098793;28;19920;-71
2024/01/06 00:22:05;;;;;;;;;;;25.40;99.90;;;;;;5100589;28;19966;-68
2024/01/06 00:24:32;;;;;;;;;;;25.40;99.90;;;;;;5098434;28;19956;-71
2024/01/06 00:26:59;;;;;;;;;;;25.30;99.90;;;;;;5100793;28;19998;-73
2024/01/06 00:29:25;;;;;;;;;;;25.30;99.90;;;;;;5098927;27;19912;-67
2024/01/06 00:31:52;;;;;;;;;;;25.20;99.90;;;;;;5097627;28;19999;-68
2024/01/06 00:34:18;;;;;;;;;;;25.10;99.90;;;;;;5097036;28;19919;-72
2024/01/06 00:36:45;;;;;;;;;;;25.00;99.90;;;;;;5097865;28;20566;-70
2024/01/06 00:39:12;;;;;;;;;;;24.90;99.90;;;;;;5094108;28;19912;-67
2024/01/06 00:41:38;;;;;;;;;;;24.80;99.90;;;;;;5109276;28;19957;-69
2024/01/06 00:44:05;;;;;;;;;;;24.80;99.90;;;;;;5098524;28;19924;-67
2024/01/06 00:46:32;;;;;;;;;;;24.80;99.90;;;;;;5098529;28;19957;-67
2024/01/06 00:48:59;;;;;;;;;;;24.70;99.90;;;;;;5114659;28;19944;-65
2024/01/06 00:51:25;;;;;;;;;;;24.60;99.90;;;;;;5099451;28;19916;-66
2024/01/06 00:53:52;;;;;;;;;;;24.70;99.90;;;;;;5094967;28;19957;-65
2024/01/06 00:56:19;;;;;;;;;;;24.90;99.90;;;;;;5094539;28;19955;-71
2024/01/06 00:58:45;;;;;;;;;;;25.20;99.90;;;;;;5104246;28;19968;-66
2024/01/06 01:01:12;;;;;;;;;;;25.50;99.90;;;;;;5104908;28;19923;-69
2024/01/06 01:03:38;;;;;;;;;;;25.80;99.90;;;;;;5093776;28;20372;-68
2024/01/06 01:06:09;;;;;;;;;;;26.00;99.90;;;;;;5094641;28;23293;-67
2024/01/06 01:08:35;;;;;;;;;;;26.50;99.60;;;;;;5112571;28;19912;-69
2024/01/06 01:11:02;;;;;;;;;;;26.80;98.90;;;;;;5106925;28;20249;-71
2024/01/06 01:13:29;;;;;;;;;;;27.00;98.30;;;;;;5100306;28;20403;-66
2024/01/06 01:15:56;;;;;;;;;;;27.20;98.30;;;;;;5097782;28;20390;-68
2024/01/06 01:18:22;;;;;;;;;;;27.50;97.70;;;;;;5114367;28;19908;-65
2024/01/06 01:20:49;;;;;;;;;;;27.80;97.80;;;;;;5112720;28;19959;-68
2024/01/06 01:23:15;;;;;;;;;;;27.90;96.30;;;;;;5093983;28;19920;-69
2024/01/06 01:25:42;;;;;;;;;;;27.60;96.60;;;;;;5093776;28;20373;-68
2024/01/06 01:28:09;;;;;;;;;;;27.80;96.80;;;;;;5104655;28;19915;-69
2024/01/06 01:30:35;;;;;;;;;;;28.00;96.50;;;;;;5104757;28;19912;-67
2024/01/06 01:33:02;;;;;;;;;;;27.80;95.90;;;;;;5113780;28;19908;-68
2024/01/06 01:35:29;;;;;;;;;;;27.60;95.90;;;;;;5113869;28;20418;-68
2024/01/06 01:37:55;;;;;;;;;;;27.30;95.90;;;;;;5113989;28;19918;-65
2024/01/06 01:40:22;;;;;;;;;;;27.00;96.70;;;;;;5110221;28;20399;-65
2024/01/06 01:42:48;;;;;;;;;;;26.90;96.20;;;;;;5113482;28;19918;-67
2024/01/06 01:45:15;;;;;;;;;;;26.80;96.80;;;;;;5095502;28;19916;-68
2024/01/06 01:47:42;;;;;;;;;;;26.70;96.90;;;;;;5104240;28;19962;-71
2024/01/06 01:50:09;;;;;;;;;;;26.70;96.80;;;;;;5101420;28;20276;-66
2024/01/06 01:52:36;;;;;;;;;;;26.80;96.00;;;;;;5113577;28;20004;-65
2024/01/06 01:55:04;;;;;;;;;;;26.90;96.40;;;;;;5098235;28;19927;-69
2024/01/06 01:57:31;;;;;;;;;;;26.90;96.70;;;;;;5093000;28;20441;-69
2024/01/06 01:59:57;;;;;;;;;;;26.90;96.00;;;;;;5094227;28;19908;-72
2024/01/06 02:02:24;;;;;;;;;;;27.00;96.00;;;;;;5111115;28;19931;-68
2024/01/06 02:04:51;;;;;;;;;;;26.90;96.60;;;;;;5113432;28;19962;-71
2024/01/06 02:07:17;;;;;;;;;;;26.90;96.70;;;;;;5096861;28;19961;-71
2024/01/06 02:09:44;;;;;;;;;;;26.70;96.60;;;;;;5107331;28;19915;-67
2024/01/06 02:12:10;;;;;;;;;;;26.70;96.30;;;;;;5113045;28;20265;-69
2024/01/06 02:14:37;;;;;;;;;;;26.70;96.10;;;;;;5111341;28;19953;-70
2024/01/06 02:17:04;;;;;;;;;;;26.70;96.60;;;;;;5111606;28;19912;-73
2024/01/06 02:19:30;;;;;;;;;;;26.60;96.20;;;;;;5103883;28;19946;-65
2024/01/06 02:21:57;;;;;;;;;;;26.70;95.60;;;;;;5091705;28;20284;-65
2024/01/06 02:24:24;;;;;;;;;;;27.00;95.50;;;;;;5112840;28;19911;-72
2024/01/06 02:26:50;;;;;;;;;;;27.60;95.90;;;;;;5113925;28;20354;-70
2024/01/06 02:29:17;;;;;;;;;;;27.90;94.60;;;;;;5112566;28;19912;-70
2024/01/06 02:31:43;;;;;;;;;;;28.00;95.10;;;;;;5125710;27;19908;-71
2024/01/06 02:34:10;;;;;;;;;;;27.80;93.90;;;;;;5097183;28;19927;-74
2024/01/06 02:36:37;;;;;;;;;;;28.30;93.30;;;;;;5109781;28;20280;-72
2024/01/06 02:39:04;;;;;;;;;;;28.40;94.00;;;;;;5112945;28;19912;-72
2024/01/06 02:41:30;;;;;;;;;;;28.70;93.00;;;;;;5114261;28;19961;-71
2024/01/06 02:43:57;;;;;;;;;;;29.20;93.40;;;;;;5112429;28;19989;-72
2024/01/06 02:46:23;;;;;;;;;;;29.50;93.10;;;;;;5113145;28;20012;-72
2024/01/06 02:48:50;;;;;;;;;;;29.70;92.20;;;;;;5112947;28;19915;-66
2024/01/06 02:51:17;;;;;;;;;;;29.90;91.50;;;;;;5112908;28;19914;-69
2024/01/06 02:53:43;;;;;;;;;;;30.00;92.30;;;;;;5112160;28;20356;-68
2024/01/06 02:56:11;;;;;;;;;;;29.70;91.90;;;;;;5106557;28;19920;-68
2024/01/06 02:58:37;;;;;;;;;;;29.70;91.20;;;;;;5106588;28;19912;-70
2024/01/06 03:01:04;;;;;;;;;;;29.90;91.20;;;;;;5102322;28;19931;-64
2024/01/06 03:03:30;;;;;;;;;;;30.30;91.40;;;;;;5112664;28;19974;-65
2024/01/06 03:05:58;;;;;;;;;;;30.70;89.90;;;;;;5112917;28;19947;-68
2024/01/06 03:08:24;;;;;;;;;;;31.00;88.70;;;;;;5094525;28;20408;-65
2024/01/06 03:10:51;;;;;;;;;;;31.30;88.70;;;;;;5111969;28;19912;-70
2024/01/06 03:13:18;;;;;;;;;;;31.70;86.00;;;;;;5103524;28;19912;-68
2024/01/06 03:15:44;;;;;;;;;;;31.80;85.80;;;;;;5116305;28;19916;-70
2024/01/06 03:18:11;;;;;;;;;;;32.30;84.70;;;;;;5116383;28;19908;-70
2024/01/06 03:20:37;;;;;;;;;;;32.50;83.40;;;;;;5116047;28;19904;-66
2024/01/06 03:23:04;;;;;;;;;;;32.90;83.00;;;;;;5116242;28;19920;-65
2024/01/06 03:25:31;;;;;;;;;;;33.30;80.40;;;;;;5108132;28;19943;-67
2024/01/06 03:27:57;;;;;;;;;;;33.20;82.40;;;;;;5109536;27;19908;-70
2024/01/06 03:30:24;;;;;;;;;;;33.90;79.90;;;;;;5119317;27;20296;-66
2024/01/06 03:32:51;;;;;;;;;;;34.70;77.90;;;;;;5114116;28;19943;-65
2024/01/06 03:35:17;;;;;;;;;;;35.50;76.70;;;;;;5114808;28;19914;-66
2024/01/06 03:37:44;;;;;;;;;;;35.30;76.20;;;;;;5115711;28;19918;-67
2024/01/06 03:40:11;;;;;;;;;;;35.70;76.40;;;;;;5115690;28;19908;-69
2024/01/06 03:42:37;;;;;;;;;;;35.10;74.60;;;;;;5116211;28;19961;-69
2024/01/06 03:45:04;;;;;;;;;;;34.10;77.50;;;;;;5116097;28;20309;-71
2024/01/06 03:47:31;;;;;;;;;;;34.60;76.30;;;;;;5116302;28;19907;-65
2024/01/06 03:49:57;;;;;;;;;;;35.20;75.50;;;;;;5108081;28;20801;-65
2024/01/06 03:52:24;;;;;;;;;;;35.20;76.40;;;;;;5104627;28;19972;-66
2024/01/06 03:54:51;;;;;;;;;;;35.90;74.40;;;;;;5093767;28;20397;-65
2024/01/06 03:57:17;;;;;;;;;;;37.10;73.00;;;;;;5098502;28;19920;-67
2024/01/06 03:59:44;;;;;;;;;;;36.70;73.50;;;;;;5099834;28;19923;-66
2024/01/06 04:02:10;;;;;;;;;;;36.50;73.30;;;;;;5101665;28;19943;-67
2024/01/06 04:04:37;;;;;;;;;;;36.70;72.10;;;;;;5099926;28;20386;-67
2024/01/06 04:07:04;;;;;;;;;;;36.00;71.90;;;;;;5081274;28;20317;-69
2024/01/06 04:09:31;;;;;;;;;;;35.80;73.10;;;;;;5098732;28;20564;-69
2024/01/06 04:11:58;;;;;;;;;;;36.10;71.70;;;;;;5098781;28;19957;-66
2024/01/06 04:14:24;;;;;;;;;;;36.80;72.50;;;;;;5097309;28;19912;-66
2024/01/06 04:16:52;;;;;;;;;;;37.60;71.80;;;;;;5098520;28;20484;-65
2024/01/06 04:19:20;;;;;;;;;;;38.30;69.40;;;;;;5080591;28;19922;-65
2024/01/06 04:21:48;;;;;;;;;;;37.90;69.90;;;;;;5098421;28;19919;-65
2024/01/06 04:24:14;;;;;;;;;;;38.30;69.30;;;;;;5096214;28;20014;-67
2024/01/06 04:26:44;;;;;;;;;;;39.10;68.50;;;;;;5100380;28;19916;-67
2024/01/06 04:29:12;;;;;;;;;;;39.20;68.20;;;;;;5093075;28;19923;-68
2024/01/06 04:31:38;;;;;;;;;;;39.20;69.00;;;;;;5098435;28;19912;-66
2024/01/06 04:34:05;;;;;;;;;;;39.60;67.50;;;;;;5096239;28;19916;-65
2024/01/06 04:36:31;;;;;;;;;;;39.70;67.80;;;;;;5091562;28;19916;-67
2024/01/06 04:38:58;;;;;;;;;;;40.00;67.30;;;;;;5092892;28;19920;-66
2024/01/06 04:41:25;;;;;;;;;;;40.40;67.30;;;;;;5107635;27;19912;-65
2024/01/06 04:43:51;;;;;;;;;;;40.20;67.80;;;;;;5098293;28;20010;-68
2024/01/06 04:46:18;;;;;;;;;;;38.70;67.10;;;;;;5100068;28;19912;-71
2024/01/06 04:48:45;;;;;;;;;;;38.00;67.80;;;;;;5114883;28;19912;-71
2024/01/06 04:51:12;;;;;;;;;;;37.40;69.60;;;;;;5114890;28;19908;-66
2024/01/06 04:53:38;;;;;;;;;;;36.80;69.60;;;;;;5114927;28;19908;-65
2024/01/06 04:56:05;;;;;;;;;;;36.50;71.30;;;;;;5114689;28;19931;-65
2024/01/06 04:58:32;;;;;;;;;;;36.20;72.00;;;;;;5114735;28;19914;-68
2024/01/06 05:00:58;;;;;;;;;;;37.10;70.40;;;;;;5110832;28;19911;-67
2024/01/06 05:03:25;;;;;;;;;;;36.10;71.50;;;;;;5104468;28;20061;-65
2024/01/06 05:05:51;;;;;;;;;;;36.80;71.50;;;;;;5114118;28;20309;-66
2024/01/06 05:08:18;;;;;;;;;;;37.60;70.30;;;;;;5113477;27;19912;-66
2024/01/06 05:10:46;;;;;;;;;;;37.20;70.20;;;;;;5114359;28;20022;-67
2024/01/06 05:13:13;;;;;;;;;;;37.50;70.20;;;;;;5114174;28;19907;-67
2024/01/06 05:15:39;;;;;;;;;;;37.00;70.80;;;;;;5114466;28;19911;-68
2024/01/06 05:18:06;;;;;;;;;;;37.10;69.80;;;;;;5117356;27;19916;-69
2024/01/06 05:20:33;;;;;;;;;;;37.40;70.20;;;;;;5098804;28;19914;-66
2024/01/06 05:22:59;;;;;;;;;;;38.30;69.30;;;;;;5111397;28;19928;-67
2024/01/06 05:25:26;;;;;;;;;;;38.10;68.50;;;;;;5084451;28;20356;-65
2024/01/06 05:27:53;;;;;;;;;;;38.10;69.60;;;;;;5114172;28;19908;-68
2024/01/06 05:30:19;;;;;;;;;;;38.00;69.90;;;;;;5100332;28;19999;-68
2024/01/06 05:32:46;;;;;;;;;;;38.50;68.50;;;;;;5093489;28;19908;-69
2024/01/06 05:35:12;;;;;;;;;;;37.70;69.10;;;;;;5097547;28;19915;-65
2024/01/06 05:37:39;;;;;;;;;;;36.80;68.50;;;;;;5106286;28;19961;-70
2024/01/06 05:40:06;;;;;;;;;;;36.10;70.40;;;;;;5093255;28;20387;-71
2024/01/06 05:42:33;;;;;;;;;;;35.50;70.80;;;;;;5112224;27;20071;-69
2024/01/06 05:45:00;;;;;;;;;;;34.60;72.50;;;;;;5113693;28;19908;-67
2024/01/06 05:47:26;;;;;;;;;;;34.30;75.50;;;;;;5113843;28;19991;-66
2024/01/06 05:49:53;;;;;;;;;;;34.10;74.90;;;;;;5113782;28;19953;-65
2024/01/06 05:52:19;;;;;;;;;;;34.40;73.00;;;;;;5108989;28;20363;-66
2024/01/06 05:54:46;;;;;;;;;;;33.50;74.00;;;;;;5100557;28;20002;-66
2024/01/06 05:57:13;;;;;;;;;;;32.60;76.50;;;;;;5092915;28;20296;-66
2024/01/06 05:59:40;;;;;;;;;;;32.90;76.40;;;;;;5111086;28;19919;-67
2024/01/06 06:02:07;;;;;;;;;;;33.10;76.60;;;;;;5113029;28;19919;-68
2024/01/06 06:04:33;;;;;;;;;;;33.20;77.40;;;;;;5100080;28;19939;-66
2024/01/06 06:07:00;;;;;;;;;;;33.40;77.00;;;;;;5099494;27;19923;-70
2024/01/06 06:09:28;;;;;;;;;;;32.90;76.50;;;;;;5094917;28;19954;-69
2024/01/06 06:11:55;;;;;;;;;;;32.10;78.60;;;;;;5092959;28;19995;-68
2024/01/06 06:14:21;;;;;;;;;;;31.80;78.70;;;;;;5093159;28;20310;-65
2024/01/06 06:16:48;;;;;;;;;;;31.20;80.80;;;;;;5093243;28;19908;-66
2024/01/06 06:19:14;;;;;;;;;;;30.70;81.00;;;;;;5093115;28;19915;-65
2024/01/06 06:21:41;;;;;;;;;;;30.80;83.50;;;;;;5093087;28;19991;-65
2024/01/06 06:24:08;;;;;;;;;;;31.10;81.70;;;;;;5092938;28;19916;-70
2024/01/06 06:26:34;;;;;;;;;;;30.40;82.60;;;;;;5092759;28;20396;-65
2024/01/06 06:29:01;;;;;;;;;;;29.50;83.40;;;;;;5092933;28;19908;-65
2024/01/06 06:31:27;;;;;;;;;;;29.60;83.60;;;;;;5092876;28;19940;-65
2024/01/06 06:33:54;;;;;;;;;;;29.10;85.40;;;;;;5092637;28;19916;-68
2024/01/06 06:36:21;;;;;;;;;;;28.70;86.70;;;;;;5074685;28;20371;-64
2024/01/06 06:38:47;;;;;;;;;;;28.70;85.90;;;;;;5092705;28;20289;-68
2024/01/06 06:41:14;;;;;;;;;;;29.10;86.90;;;;;;5092437;28;19915;-69
2024/01/06 06:43:41;;;;;;;;;;;29.40;86.60;;;;;;5096949;28;20068;-70
2024/01/06 06:46:08;;;;;;;;;;;29.60;85.10;;;;;;5101454;28;19908;-67
2024/01/06 06:48:36;;;;;;;;;;;29.70;85.70;;;;;;5096241;28;19912;-71
2024/01/06 06:51:03;;;;;;;;;;;30.00;85.20;;;;;;5105417;28;19912;-71
2024/01/06 06:53:29;;;;;;;;;;;29.70;84.70;;;;;;5099669;28;19919;-70
2024/01/06 06:55:56;;;;;;;;;;;29.40;86.00;;;;;;5100781;28;19920;-67
2024/01/06 06:58:23;;;;;;;;;;;29.20;86.60;;;;;;5109419;28;20429;-71
2024/01/06 07:00:50;;;;;;;;;;;29.10;87.30;;;;;;5103666;28;19922;-70
2024/01/06 07:03:16;;;;;;;;;;;29.20;86.10;;;;;;5097219;27;19931;-69
2024/01/06 07:05:43;;;;;;;;;;;28.90;87.10;;;;;;5100722;28;19933;-68
2024/01/06 07:08:10;;;;;;;;;;;28.50;87.00;;;;;;5105883;28;20273;-69
2024/01/06 07:10:36;;;;;;;;;;;28.20;89.10;;;;;;5116942;28;20436;-67
2024/01/06 07:13:04;;;;;;;;;;;28.20;88.80;;;;;;5099608;28;19908;-70
2024/01/06 07:15:31;;;;;;;;;;;28.20;90.00;;;;;;5094680;28;19915;-68
2024/01/06 07:17:57;;;;;;;;;;;28.40;88.70;;;;;;5098609;28;20333;-68
2024/01/06 07:20:24;;;;;;;;;;;28.00;89.50;;;;;;5099579;28;20014;-64
2024/01/06 07:22:50;;;;;;;;;;;27.70;90.20;;;;;;5095562;28;20590;-65
2024/01/06 07:25:17;;;;;;;;;;;27.80;90.20;;;;;;5094267;28;19912;-65
2024/01/06 07:27:43;;;;;;;;;;;28.00;89.90;;;;;;5094434;28;20289;-66
2024/01/06 07:30:10;;;;;;;;;;;27.90;89.70;;;;;;5105206;27;19927;-64
2024/01/06 07:32:37;;;;;;;;;;;27.70;89.60;;;;;;5120401;27;19993;-70
2024/01/06 07:35:04;;;;;;;;;;;27.60;90.40;;;;;;5119261;27;19918;-67
2024/01/06 07:37:30;;;;;;;;;;;27.40;90.10;;;;;;5101206;27;20064;-64
2024/01/06 07:39:57;;;;;;;;;;;27.40;90.10;;;;;;5105865;27;19918;-69
2024/01/06 07:42:24;;;;;;;;;;;27.10;90.70;;;;;;5113179;27;19919;-68
2024/01/06 07:44:50;;;;;;;;;;;26.90;90.60;;;;;;5114623;28;20375;-63
2024/01/06 07:47:17;;;;;;;;;;;26.70;91.20;;;;;;5115088;28;19908;-70
2024/01/06 07:49:43;;;;;;;;;;;26.30;91.40;;;;;;5116121;28;19911;-68
2024/01/06 07:52:10;;;;;;;;;;;26.10;92.10;;;;;;5115576;28;19994;-69
2024/01/06 07:54:37;;;;;;;;;;;26.00;92.60;;;;;;5115896;28;19989;-70
2024/01/06 07:57:03;;;;;;;;;;;26.00;92.20;;;;;;5116202;28;19907;-66
2024/01/06 07:59:30;;;;;;;;;;;25.80;92.50;;;;;;5116004;28;19908;-67
2024/01/06 08:01:57;;;;;;;;;;;25.80;92.70;;;;;;5115776;28;19912;-66
2024/01/06 08:04:23;;;;;;;;;;;26.00;92.80;;;;;;5115929;28;19916;-66
2024/01/06 08:06:50;;;;;;;;;;;25.90;92.40;;;;;;5115819;28;19994;-64
2024/01/06 08:09:17;;;;;;;;;;;25.70;92.60;;;;;;5115899;28;19990;-64
2024/01/06 08:11:45;;;;;;;;;;;25.70;92.80;;;;;;5115703;28;19953;-66
2024/01/06 08:14:12;;;;;;;;;;;25.50;93.00;;;;;;5115371;28;19911;-70
2024/01/06 08:16:39;;;;;;;;;;;25.40;93.80;;;;;;5115688;28;20425;-66
2024/01/06 08:19:06;;;;;;;;;;;25.50;93.60;;;;;;5115636;28;20380;-64
2024/01/06 08:21:34;;;;;;;;;;;25.40;93.40;;;;;;5115793;28;20006;-66
2024/01/06 08:24:00;;;;;;;;;;;25.30;93.40;;;;;;5115297;28;19945;-67
2024/01/06 08:26:27;;;;;;;;;;;25.20;93.40;;;;;;5115568;28;20284;-67
2024/01/06 08:28:54;;;;;;;;;;;25.10;93.70;;;;;;5115244;28;19908;-66
2024/01/06 08:31:22;;;;;;;;;;;25.00;93.80;;;;;;5115276;28;19930;-68
2024/01/06 08:33:48;;;;;;;;;;;24.80;94.20;;;;;;5115164;28;19908;-63
2024/01/06 08:36:15;;;;;;;;;;;24.80;94.70;;;;;;5115252;28;19960;-64
2024/01/06 08:38:41;;;;;;;;;;;24.90;94.60;;;;;;5114996;28;19907;-68
2024/01/06 08:41:08;;;;;;;;;;;24.90;94.60;;;;;;5114980;28;19996;-63
2024/01/06 08:43:35;;;;;;;;;;;24.90;94.40;;;;;;5115032;28;19916;-68
2024/01/06 08:46:02;;;;;;;;;;;24.70;94.10;;;;;;5115040;28;19908;-64
2024/01/06 08:48:28;;;;;;;;;;;24.40;94.60;;;;;;5107486;28;20012;-69
2024/01/06 08:50:55;;;;;;;;;;;24.30;94.60;;;;;;5097172;28;20380;-70
2024/01/06 08:53:21;;;;;;;;;;;24.40;94.70;;;;;;5106580;28;19958;-64
2024/01/06 08:55:48;;;;;;;;;;;24.30;94.70;;;;;;5102050;28;19919;-66
2024/01/06 08:58:15;;;;;;;;;;;24.30;95.10;;;;;;5103467;27;19916;-66
2024/01/06 09:00:41;;;;;;;;;;;24.40;94.70;;;;;;5110414;27;19908;-67
2024/01/06 09:03:09;;;;;;;;;;;24.40;94.60;;;;;;5113481;28;20355;-64
2024/01/06 09:05:36;;;;;;;;;;;24.30;94.70;;;;;;5099308;27;20019;-69
2024/01/06 09:08:03;;;;;;;;;;;24.20;95.00;;;;;;5123276;27;19908;-65
2024/01/06 09:10:29;;;;;;;;;;;24.10;95.20;;;;;;5107113;27;19954;-65
2024/01/06 09:12:56;;;;;;;;;;;24.00;95.50;;;;;;5111569;27;20341;-67
2024/01/06 09:15:23;;;;;;;;;;;24.10;95.80;;;;;;5095734;28;19923;-65
2024/01/06 09:17:50;;;;;;;;;;;24.00;96.20;;;;;;5101894;27;19908;-64
2024/01/06 09:20:17;;;;;;;;;;;23.90;96.40;;;;;;5099378;28;20365;-64
2024/01/06 09:22:44;;;;;;;;;;;24.00;96.80;;;;;;5109467;27;20411;-69
2024/01/06 09:25:11;;;;;;;;;;;24.00;96.90;;;;;;5104048;28;20288;-66
2024/01/06 09:27:38;;;;;;;;;;;24.00;97.10;;;;;;5099283;28;19908;-71
2024/01/06 09:30:05;;;;;;;;;;;24.00;97.30;;;;;;5103491;28;19912;-64
2024/01/06 09:32:32;;;;;;;;;;;24.00;97.50;;;;;;5103815;28;20370;-65
2024/01/06 09:34:58;;;;;;;;;;;23.80;97.70;;;;;;5100209;27;19911;-64
2024/01/06 09:37:25;;;;;;;;;;;23.70;98.00;;;;;;5111278;28;19912;-66
2024/01/06 09:39:51;;;;;;;;;;;23.70;98.40;;;;;;5110921;28;19922;-64
2024/01/06 09:42:19;;;;;;;;;;;23.70;98.80;;;;;;5113238;27;19915;-66
2024/01/06 09:44:45;;;;;;;;;;;23.60;98.60;;;;;;5121570;27;20029;-65
2024/01/06 09:47:12;;;;;;;;;;;23.60;98.70;;;;;;5104795;28;20268;-67
2024/01/06 09:49:39;;;;;;;;;;;23.60;98.80;;;;;;5113374;28;20350;-64
2024/01/06 09:52:11;;;;;;;;;;;23.60;98.80;;;;;;5099573;28;20007;-65
2024/01/06 09:54:39;;;;;;;;;;;23.60;98.80;;;;;;5096655;28;19920;-66
2024/01/06 09:57:06;;;;;;;;;;;23.60;98.90;;;;;;5103336;28;19916;-65
2024/01/06 09:59:34;;;;;;;;;;;23.60;98.90;;;;;;5109830;28;19912;-68
2024/01/06 10:02:01;;;;;;;;;;;23.60;99.10;;;;;;5101616;27;19912;-64
2024/01/06 10:04:27;;;;;;;;;;;23.50;98.90;;;;;;5110536;27;19951;-67
2024/01/06 10:06:55;;;;;;;;;;;23.40;99.10;;;;;;5092936;28;19912;-69
2024/01/06 10:09:28;;;;;;;;;;;23.40;99.40;;;;;;5091174;28;19963;-71
2024/01/06 10:11:59;;;;;;;;;;;23.30;99.40;;;;;;5094090;28;20293;-67
2024/01/06 10:14:26;;;;;;;;;;;23.30;99.60;;;;;;5092451;28;19923;-68
2024/01/06 10:16:53;;;;;;;;;;;23.30;99.70;;;;;;5093887;28;19969;-66
2024/01/06 10:19:19;;;;;;;;;;;23.30;99.90;;;;;;5097619;28;20002;-72
2024/01/06 10:21:46;;;;;;;;;;;23.30;99.90;;;;;;5100070;28;19912;-67
2024/01/06 10:24:13;;;;;;;;;;;23.30;99.90;;;;;;5097917;28;19920;-67
2024/01/06 10:26:40;;;;;;;;;;;23.30;99.90;;;;;;5096663;28;19912;-65
2024/01/06 10:29:07;;;;;;;;;;;23.30;99.90;;;;;;5091611;28;19912;-65
2024/01/06 10:31:34;;;;;;;;;;;23.30;99.90;;;;;;5091173;28;20279;-66
2024/01/06 10:34:00;;;;;;;;;;;23.20;99.90;;;;;;5096323;28;19950;-66
2024/01/06 10:36:27;;;;;;;;;;;23.20;99.90;;;;;;5093382;28;19948;-68
2024/01/06 10:38:54;;;;;;;;;;;23.20;99.90;;;;;;5092716;28;19912;-66
2024/01/06 10:41:20;;;;;;;;;;;23.20;99.90;;;;;;5104213;28;20002;-67
2024/01/06 10:43:48;;;;;;;;;;;23.20;99.90;;;;;;5096629;28;19920;-65
2024/01/06 10:46:15;;;;;;;;;;;23.20;99.90;;;;;;5108537;28;19912;-67
2024/01/06 10:48:43;;;;;;;;;;;23.20;99.90;;;;;;5113041;28;19916;-69
2024/01/06 10:51:10;;;;;;;;;;;23.10;99.90;;;;;;5102972;28;20019;-69
2024/01/06 10:53:38;;;;;;;;;;;23.10;99.90;;;;;;5102160;28;19912;-68
2024/01/06 10:56:09;;;;;;;;;;;23.00;99.90;;;;;;5110641;28;19931;-65
2024/01/06 10:58:53;;;;;;;;;;;23.10;99.90;;;;;;5119302;28;19949;-67
2024/01/06 11:01:21;;;;;;;;;;;23.00;99.90;;;;;;5115259;28;20010;-65
2024/01/06 11:03:49;;;;;;;;;;;23.00;99.90;;;;;;5110863;28;19920;-66
2024/01/06 11:06:17;;;;;;;;;;;23.00;99.90;;;;;;5123221;28;20001;-66
2024/01/06 11:09:03;;;;;;;;;;;23.00;99.90;;;;;;5108876;28;20026;-66
2024/01/06 11:11:30;;;;;;;;;;;23.00;99.90;;;;;;5100651;28;19918;-65
2024/01/06 11:14:15;;;;;;;;;;;23.00;99.90;;;;;;5115398;28;20076;-70
2024/01/06 11:16:43;;;;;;;;;;;22.90;99.90;;;;;;5118416;28;19911;-65
2024/01/06 11:19:27;;;;;;;;;;;22.90;99.90;;;;;;5126584;28;19915;-70
2024/01/06 11:21:54;;;;;;;;;;;22.90;99.90;;;;;;5124338;28;19908;-65
2024/01/06 11:24:20;;;;;;;;;;;22.90;99.90;;;;;;5110805;27;19920;-65
2024/01/06 11:26:55;;;;;;;;;;;22.90;99.90;;;;;;5113233;28;19933;-65
2024/01/06 11:29:22;;;;;;;;;;;22.90;99.90;;;;;;5098648;28;19919;-64
2024/01/06 11:32:06;;;;;;;;;;;22.80;99.90;;;;;;5116402;28;19918;-66
2024/01/06 11:34:37;;;;;;;;;;;22.70;99.90;;;;;;5114189;27;19912;-73
2024/01/06 11:37:05;;;;;;;;;;;22.70;99.90;;;;;;5106083;27;19935;-66
2024/01/06 11:39:38;;;;;;;;;;;22.80;99.90;;;;;;5111122;27;20375;-64
2024/01/06 11:42:05;;;;;;;;;;;22.70;99.90;;;;;;5120259;27;20002;-66
2024/01/06 11:44:37;;;;;;;;;;;22.70;99.90;;;;;;5105957;27;19973;-68
2024/01/06 11:47:04;;;;;;;;;;;22.70;99.90;;;;;;5121600;27;19912;-64
2024/01/06 11:49:31;;;;;;;;;;;22.70;99.90;;;;;;5116947;27;20279;-65
2024/01/06 11:51:58;;;;;;;;;;;22.70;99.90;;;;;;5116306;27;19919;-65
2024/01/06 11:54:25;;;;;;;;;;;22.70;99.90;;;;;;5099872;28;19926;-67
2024/01/06 11:56:55;;;;;;;;;;;22.70;99.90;;;;;;5102157;27;19913;-65
2024/01/06 11:59:22;;;;;;;;;;;22.60;99.90;;;;;;5108079;28;20415;-65
2024/01/06 12:01:49;;;;;;;;;;;22.60;99.90;;;;;;5108747;28;19998;-66
2024/01/06 12:04:16;;;;;;;;;;;22.60;99.90;;;;;;5107198;28;19984;-67
2024/01/06 12:06:43;;;;;;;;;;;22.60;99.90;;;;;;5105738;28;20014;-66
2024/01/06 12:09:14;;;;;;;;;;;22.60;99.90;;;;;;5108929;28;19908;-65
2024/01/06 12:11:41;;;;;;;;;;;22.60;99.90;;;;;;5103525;28;19931;-70
2024/01/06 12:14:08;;;;;;;;;;;22.60;99.90;;;;;;5115718;28;19908;-66
2024/01/06 12:16:34;;;;;;;;;;;22.50;99.90;;;;;;5115770;28;20360;-68
2024/01/06 12:19:03;;;;;;;;;;;22.50;99.90;;;;;;5085158;28;19916;-65
2024/01/06 12:21:37;;;;;;;;;;;22.50;99.90;;;;;;5108234;28;19914;-65
2024/01/06 12:24:13;;;;;;;;;;;22.50;99.90;;;;;;5109749;28;19927;-65
2024/01/06 12:26:41;;;;;;;;;;;22.40;99.90;;;;;;5108542;27;20003;-68
2024/01/06 12:29:08;;;;;;;;;;;22.40;99.90;;;;;;5104348;27;19912;-65
2024/01/06 12:31:35;;;;;;;;;;;22.40;99.90;;;;;;5106909;28;19955;-67
2024/01/06 12:34:04;;;;;;;;;;;22.40;99.90;;;;;;5102012;27;19916;-66
2024/01/06 12:36:31;;;;;;;;;;;22.40;99.90;;;;;;5089859;28;19912;-65
2024/01/06 12:38:58;;;;;;;;;;;22.40;99.90;;;;;;5112323;28;19934;-66
2024/01/06 12:41:25;;;;;;;;;;;22.40;99.90;;;;;;5101672;28;19911;-66
2024/01/06 12:43:52;;;;;;;;;;;22.40;99.90;;;;;;5110389;28;20012;-65
2024/01/06 12:46:18;;;;;;;;;;;22.30;99.90;;;;;;5095790;28;19912;-69
2024/01/06 12:48:45;;;;;;;;;;;22.30;99.90;;;;;;5111667;28;20427;-66
2024/01/06 12:51:11;;;;;;;;;;;22.40;99.90;;;;;;5108988;27;19915;-65
2024/01/06 12:53:38;;;;;;;;;;;22.30;99.90;;;;;;5111634;28;19912;-65
2024/01/06 12:56:05;;;;;;;;;;;22.30;99.90;;;;;;5106506;28;19974;-69
2024/01/06 12:58:31;;;;;;;;;;;22.40;99.90;;;;;;5104655;28;19912;-64
2024/01/06 13:00:58;;;;;;;;;;;22.40;99.90;;;;;;5097395;28;20368;-64
2024/01/06 13:03:25;;;;;;;;;;;22.40;99.90;;;;;;5099975;28;19963;-64
2024/01/06 13:05:51;;;;;;;;;;;22.40;99.90;;;;;;5095761;27;20003;-70
2024/01/06 13:08:18;;;;;;;;;;;22.40;99.90;;;;;;5099955;28;19990;-66
2024/01/06 13:10:45;;;;;;;;;;;22.30;99.90;;;;;;5103878;28;19960;-64
2024/01/06 13:13:11;;;;;;;;;;;22.40;99.90;;;;;;5104049;27;20281;-68
2024/01/06 13:15:38;;;;;;;;;;;22.30;99.90;;;;;;5111598;28;19919;-65
2024/01/06 13:18:05;;;;;;;;;;;22.30;99.90;;;;;;5104549;28;19916;-71
2024/01/06 13:20:32;;;;;;;;;;;22.20;99.90;;;;;;5098520;28;19916;-64
2024/01/06 13:22:58;;;;;;;;;;;22.20;99.90;;;;;;5099936;28;19939;-65
2024/01/06 13:25:25;;;;;;;;;;;22.30;99.90;;;;;;5106235;28;20273;-66
2024/01/06 13:27:52;;;;;;;;;;;22.20;99.90;;;;;;5094293;28;19908;-70
2024/01/06 13:30:20;;;;;;;;;;;22.30;99.90;;;;;;5093916;28;19916;-64
2024/01/06 13:32:48;;;;;;;;;;;22.30;99.90;;;;;;5093658;28;19920;-64
2024/01/06 13:35:15;;;;;;;;;;;22.30;99.90;;;;;;5092684;28;19920;-65
2024/01/06 13:37:43;;;;;;;;;;;22.30;99.90;;;;;;5097169;28;20266;-67
2024/01/06 13:40:10;;;;;;;;;;;22.30;99.90;;;;;;5095416;28;19912;-64
2024/01/06 13:42:37;;;;;;;;;;;22.30;99.90;;;;;;5097031;28;19913;-64
2024/01/06 13:45:04;;;;;;;;;;;22.30;99.90;;;;;;5122655;27;20349;-68
2024/01/06 13:47:31;;;;;;;;;;;22.30;99.90;;;;;;5098563;27;20005;-65
2024/01/06 13:49:58;;;;;;;;;;;22.30;99.90;;;;;;5104220;27;19918;-67
2024/01/06 13:52:24;;;;;;;;;;;22.20;99.90;;;;;;5107970;27;19922;-67
2024/01/06 13:54:52;;;;;;;;;;;22.20;99.90;;;;;;5113917;27;19920;-65
2024/01/06 13:57:18;;;;;;;;;;;22.20;99.90;;;;;;5133840;27;20424;-64
2024/01/06 13:59:46;;;;;;;;;;;22.20;99.90;;;;;;5113824;28;19953;-66
2024/01/06 14:02:13;;;;;;;;;;;22.20;99.90;;;;;;5113842;28;19907;-66
2024/01/06 14:04:39;;;;;;;;;;;22.20;99.90;;;;;;5113299;28;20002;-65
2024/01/06 14:07:06;;;;;;;;;;;22.10;99.90;;;;;;5114374;27;20011;-66
2024/01/06 14:09:33;;;;;;;;;;;22.10;99.90;;;;;;5112801;28;19908;-65
2024/01/06 14:12:00;;;;;;;;;;;22.10;99.90;;;;;;5092831;28;20014;-66
2024/01/06 14:14:26;;;;;;;;;;;22.10;99.90;;;;;;5093286;28;19909;-64